Time;durP1;ratioP1;P1;durP2;ratioP2;P2;SDS_P1;SDS_P2;PMS_P1;PMS_P2;Temp;Humidity;BMP_temperature;BMP_pressure;BME280_temperature;BME280_humidity;BME280_pressure;Samples;Min_cycle;Max_cycle;Signal;HPM_P1;HPM_P2
2021/10/28 00:14:00;;;;;;;46.85;26.55;;;;;;;5.12;81.13;100305.92;1776089;80;21035;-69
2021/10/28 00:16:30;;;;;;;49.03;28.30;;;;;;;5.13;81.01;100302.13;1810964;78;21129;-70
2021/10/28 00:19:01;;;;;;;45.83;25.20;;;;;;;5.14;80.91;100298.83;1818302;78;21020;-69
2021/10/28 00:21:31;;;;;;;42.15;24.63;;;;;;;5.14;80.89;100298.83;1822059;78;21571;-70
2021/10/28 00:24:00;;;;;;;49.70;26.57;;;;;;;5.13;80.79;100300.76;1811704;78;21465;-69
2021/10/28 00:26:28;;;;;;;48.20;26.52;;;;;;;5.11;80.69;100301.02;1787516;78;21003;-69
2021/10/28 00:28:59;;;;;;;43.63;24.40;;;;;;;5.11;80.81;100298.83;1780776;78;21071;-70
2021/10/28 00:31:28;;;;;;;41.15;24.90;;;;;;;5.14;80.83;100298.83;1816801;78;20976;-69
2021/10/28 00:33:56;;;;;;;45.35;24.77;;;;;;;5.15;80.77;100297.76;1821112;78;21590;-69
2021/10/28 00:36:27;;;;;;;43.20;24.18;;;;;;;5.16;80.72;100300.76;1786752;78;21015;-69
2021/10/28 00:38:54;;;;;;;43.15;24.95;;;;;;;5.17;80.68;100301.05;1814565;78;21504;-70
2021/10/28 00:41:22;;;;;;;46.53;27.05;;;;;;;5.15;80.73;100296.39;1813622;78;22104;-70
2021/10/28 00:43:54;;;;;;;41.33;25.68;;;;;;;5.16;80.69;100288.46;1782156;78;21468;-69
2021/10/28 00:46:23;;;;;;;43.42;25.77;;;;;;;5.16;80.55;100287.93;1813016;78;21485;-69
2021/10/28 00:48:49;;;;;;;44.00;24.90;;;;;;;5.13;80.52;100287.09;1812743;78;21475;-69
2021/10/28 00:51:19;;;;;;;49.60;26.62;;;;;;;5.10;80.53;100291.73;1810736;78;20988;-69
2021/10/28 00:53:46;;;;;;;46.80;28.47;;;;;;;5.05;80.61;100281.57;1818281;78;21052;-69
2021/10/28 00:56:13;;;;;;;48.13;28.02;;;;;;;5.05;80.71;100285.67;1812546;78;21031;-69
2021/10/28 00:58:39;;;;;;;51.18;28.60;;;;;;;5.03;80.76;100285.13;1822325;78;21520;-69
2021/10/28 01:01:10;;;;;;;44.48;26.10;;;;;;;5.02;80.80;100281.27;1791124;78;21453;-70
2021/10/28 01:03:38;;;;;;;43.38;25.77;;;;;;;5.02;80.92;100278.54;1796095;78;21047;-70
2021/10/28 01:06:12;;;;;;;51.35;29.02;;;;;;;5.03;80.94;100270.11;1817570;78;21029;-71
2021/10/28 01:08:42;;;;;;;52.40;28.70;;;;;;;5.02;81.03;100262.98;1815772;78;21432;-68
2021/10/28 01:11:11;;;;;;;44.93;28.32;;;;;;;5.03;81.02;100266.01;1802112;78;21488;-69
2021/10/28 01:13:40;;;;;;;52.67;30.37;;;;;;;5.00;80.94;100255.59;1790089;78;21024;-69
2021/10/28 01:16:07;;;;;;;49.80;26.68;;;;;;;4.97;81.04;100269.25;1817670;78;20956;-69
2021/10/28 01:18:35;;;;;;;42.33;26.77;;;;;;;4.95;81.06;100266.48;1815450;78;21084;-69
2021/10/28 01:21:03;;;;;;;53.92;29.77;;;;;;;4.94;81.09;100266.22;1820061;78;21038;-69
2021/10/28 01:23:30;;;;;;;47.13;27.87;;;;;;;4.93;81.16;100272.21;1823212;78;21020;-70
2021/10/28 01:26:06;;;;;;;48.40;27.73;;;;;;;4.93;81.24;100264.58;1819488;78;21531;-70
2021/10/28 01:28:38;;;;;;;46.85;27.20;;;;;;;4.93;81.21;100265.38;1812053;78;20996;-69
2021/10/28 01:31:08;;;;;;;45.88;27.85;;;;;;;4.95;81.25;100262.38;1815310;78;21176;-69
2021/10/28 01:33:36;;;;;;;49.00;29.00;;;;;;;4.95;81.30;100259.12;1795130;78;21063;-69
2021/10/28 01:36:05;;;;;;;47.05;28.45;;;;;;;4.98;81.30;100250.39;1813236;78;20981;-71
2021/10/28 01:38:32;;;;;;;47.55;28.77;;;;;;;4.99;81.25;100253.95;1817064;78;21523;-68
2021/10/28 01:41:01;;;;;;;52.10;30.40;;;;;;;4.98;81.22;100236.73;1797090;79;21496;-68
2021/10/28 01:43:29;;;;;;;47.27;28.62;;;;;;;4.96;81.16;100234.00;1777159;80;21170;-68
2021/10/28 01:45:56;;;;;;;51.55;27.52;;;;;;;4.93;81.15;100242.73;1770413;80;21073;-70
2021/10/28 01:48:24;;;;;;;59.70;29.67;;;;;;;4.87;81.14;100242.70;1811016;78;21055;-70
2021/10/28 01:50:51;;;;;;;50.00;30.02;;;;;;;4.86;81.24;100242.97;1817620;78;20988;-70
2021/10/28 01:53:19;;;;;;;48.83;28.62;;;;;;;4.83;81.39;100245.66;1809951;78;20984;-71
2021/10/28 01:55:46;;;;;;;45.63;28.77;;;;;;;4.82;81.48;100246.77;1816480;77;21504;-69
2021/10/28 01:58:13;;;;;;;51.45;28.42;;;;;;;4.81;81.48;100247.83;1799233;78;21117;-70
2021/10/28 02:00:41;;;;;;;46.92;28.38;;;;;;;4.82;81.58;100242.67;1815254;78;20975;-69
2021/10/28 02:03:09;;;;;;;47.60;28.00;;;;;;;4.84;81.57;100245.97;1796846;78;21508;-70
2021/10/28 02:05:36;;;;;;;45.63;28.38;;;;;;;4.84;81.47;100243.23;1808833;78;21039;-70
2021/10/28 02:08:05;;;;;;;53.15;30.02;;;;;;;4.84;81.41;100237.77;1818246;78;21023;-70
2021/10/28 02:10:33;;;;;;;48.55;29.77;;;;;;;4.81;81.32;100237.47;1817042;78;20978;-68
2021/10/28 02:13:00;;;;;;;47.73;30.55;;;;;;;4.77;81.31;100234.44;1816631;78;21492;-71
2021/10/28 02:15:27;;;;;;;49.90;30.82;;;;;;;4.73;81.32;100238.77;1815796;78;20976;-70
2021/10/28 02:17:55;;;;;;;60.05;31.77;;;;;;;4.69;81.40;100230.28;1787963;80;21062;-68
2021/10/28 02:20:24;;;;;;;49.77;28.73;;;;;;;4.66;81.40;100230.01;1815556;78;21177;-70
2021/10/28 02:22:50;;;;;;;51.88;30.23;;;;;;;4.61;81.50;100242.52;1777110;80;21016;-69
2021/10/28 02:25:19;;;;;;;54.50;30.57;;;;;;;4.60;81.68;100250.98;1777026;80;21496;-70
2021/10/28 02:27:53;;;;;;;51.85;30.45;;;;;;;4.59;81.81;100254.80;1783327;80;21020;-70
2021/10/28 02:30:22;;;;;;;48.78;30.85;;;;;;;4.58;81.87;100254.51;1778415;80;21516;-70
2021/10/28 02:32:50;;;;;;;52.50;30.05;;;;;;;4.57;81.98;100256.97;1817562;77;21146;-70
2021/10/28 02:35:16;;;;;;;59.23;33.50;;;;;;;4.58;82.07;100255.88;1815481;78;21016;-70
2021/10/28 02:37:46;;;;;;;49.88;30.08;;;;;;;4.58;82.15;100254.51;1809617;78;21007;-69
2021/10/28 02:40:14;;;;;;;51.23;32.00;;;;;;;4.59;82.30;100256.17;1812648;78;21055;-69
2021/10/28 02:42:40;;;;;;;53.65;30.75;;;;;;;4.61;82.38;100252.08;1823864;78;21003;-69
2021/10/28 02:45:08;;;;;;;50.12;29.70;;;;;;;4.62;82.47;100243.36;1813863;78;22114;-69
2021/10/28 02:47:36;;;;;;;55.50;33.05;;;;;;;4.63;82.45;100238.16;1783374;78;21003;-69
2021/10/28 02:50:04;;;;;;;55.28;32.48;;;;;;;4.63;82.37;100243.09;1817957;78;21019;-71
2021/10/28 02:52:34;;;;;;;56.60;32.88;;;;;;;4.64;82.37;100245.26;1813639;78;21010;-70
2021/10/28 02:55:04;;;;;;;51.63;31.23;;;;;;;4.66;82.36;100239.00;1790444;80;20993;-69
2021/10/28 02:57:32;;;;;;;55.17;33.13;;;;;;;4.68;82.31;100238.20;1794769;80;21740;-71
2021/10/28 02:59:58;;;;;;;54.55;30.72;;;;;;;4.68;82.22;100240.09;1768670;80;20968;-70
2021/10/28 03:02:25;;;;;;;57.03;32.28;;;;;;;4.65;82.29;100237.36;1794779;80;21053;-69
2021/10/28 03:04:53;;;;;;;63.78;31.85;;;;;;;4.66;82.41;100233.54;1793959;80;21035;-70
2021/10/28 03:07:21;;;;;;;53.05;32.58;;;;;;;4.67;82.45;100232.47;1789795;80;21083;-70
2021/10/28 03:09:48;;;;;;;60.33;32.40;;;;;;;4.68;82.50;100226.45;1767239;80;21054;-71
2021/10/28 03:12:14;;;;;;;55.80;30.95;;;;;;;4.69;82.49;100229.48;1794466;80;21441;-69
2021/10/28 03:27:47;;;;;;;54.13;33.05;;;;;;;4.79;82.69;100231.44;1802803;79;21078;-69
2021/10/28 03:30:13;;;;;;;59.03;34.13;;;;;;;4.81;82.71;100227.91;1779712;79;21106;-70
2021/10/28 03:32:40;;;;;;;59.45;33.88;;;;;;;4.81;82.68;100225.98;1807090;79;21632;-71
2021/10/28 03:35:10;;;;;;;59.60;34.03;;;;;;;4.80;82.59;100221.62;1806037;79;21118;-70
2021/10/28 03:37:51;;;;;;;58.92;33.55;;;;;;;4.79;82.59;100224.62;1805072;79;21073;-70
2021/10/28 03:43:23;;;;;;;58.08;32.73;;;;;;;4.74;82.81;100234.41;1764794;81;21050;-72
2021/10/28 03:59:06;;;;;;;57.60;34.08;;;;;;;4.91;83.32;100209.39;1813819;78;21083;-69
2021/10/28 04:04:24;;;;;;;49.88;30.68;;;;;;;4.98;83.53;100208.62;1817117;78;21468;-69
2021/10/28 04:31:31;;;;;;;;;;;;;;;5.43;84.49;100221.36;1788074;78;21052;-69
2021/10/28 04:34:01;;;;;;;53.92;31.82;;;;;;;5.46;84.53;100219.98;1789930;78;20118;-69
2021/10/28 04:36:30;;;;;;;52.65;30.70;;;;;;;5.50;84.63;100218.38;1788621;78;21564;-69
2021/10/28 04:38:58;;;;;;;58.00;33.35;;;;;;;5.53;84.71;100218.37;1785615;78;21536;-69
2021/10/28 04:41:25;;;;;;;52.53;33.15;;;;;;;5.58;84.79;100219.22;1819498;78;22131;-69
2021/10/28 04:43:52;;;;;;;56.95;32.20;;;;;;;5.62;84.88;100212.66;1819291;78;21464;-70
2021/10/28 04:46:19;;;;;;;51.95;30.72;;;;;;;5.68;84.94;100210.77;1820052;78;21462;-69
2021/10/28 04:48:48;;;;;;;52.25;33.30;;;;;;;5.72;84.96;100207.22;1817432;78;21439;-69
2021/10/28 04:51:15;;;;;;;55.12;30.75;;;;;;;5.79;84.96;100216.53;1789974;78;21551;-69
2021/10/28 04:53:43;;;;;;;64.40;33.20;;;;;;;5.84;84.92;100211.07;1817933;78;21112;-69
2021/10/28 04:56:09;;;;;;;47.88;31.20;;;;;;;5.89;84.85;100210.78;1789037;78;20968;-69
2021/10/28 04:58:36;;;;;;;52.45;31.17;;;;;;;5.93;84.79;100216.83;1819381;78;20978;-69
2021/10/28 05:01:02;;;;;;;57.23;32.28;;;;;;;5.96;84.78;100215.45;1793430;78;20969;-69
2021/10/28 05:03:29;;;;;;;52.67;30.00;;;;;;;5.99;84.75;100217.64;1812352;78;21086;-69
2021/10/28 05:05:55;;;;;;;50.78;32.00;;;;;;;6.03;84.67;100221.48;1811481;78;21548;-69
2021/10/28 05:08:22;;;;;;;54.50;31.90;;;;;;;6.06;84.61;100220.97;1812596;78;20995;-69
2021/10/28 05:10:50;;;;;;;53.50;33.00;;;;;;;6.08;84.58;100220.70;1812581;78;20964;-69
2021/10/28 05:13:18;;;;;;;52.95;30.50;;;;;;;6.12;84.49;100220.97;1818644;78;21427;-69
2021/10/28 05:15:47;;;;;;;67.47;34.80;;;;;;;6.13;84.44;100228.08;1820756;78;21023;-69
2021/10/28 05:18:14;;;;;;;53.70;34.15;;;;;;;6.16;84.40;100227.55;1822440;78;21153;-69
2021/10/28 05:20:42;;;;;;;57.38;34.78;;;;;;;6.14;84.31;100222.90;1822111;78;21043;-70
2021/10/28 05:23:10;;;;;;;56.65;33.55;;;;;;;6.13;84.26;100228.91;1812340;78;21041;-69
2021/10/28 05:25:38;;;;;;;61.42;35.85;;;;;;;6.14;84.22;100222.33;1792396;78;21088;-69
2021/10/28 05:28:05;;;;;;;57.08;32.80;;;;;;;6.14;84.23;100214.12;1818039;78;21096;-69
2021/10/28 05:30:32;;;;;;;59.13;33.78;;;;;;;6.14;84.25;100214.12;1821240;78;21031;-69
2021/10/28 05:33:03;;;;;;;52.23;33.60;;;;;;;6.16;84.29;100211.94;1792684;78;21504;-69
2021/10/28 05:35:31;;;;;;;68.05;36.55;;;;;;;6.19;84.32;100205.91;1818823;78;21090;-69
2021/10/28 05:37:57;;;;;;;59.90;33.88;;;;;;;6.21;84.35;100213.84;1792259;78;21060;-69
2021/10/28 05:40:24;;;;;;;60.52;32.75;;;;;;;6.24;84.36;100211.13;1798901;78;21053;-69
2021/10/28 05:42:53;;;;;;;59.45;32.78;;;;;;;6.28;84.29;100220.41;1817230;78;21078;-69
2021/10/28 05:45:23;;;;;;;64.22;33.05;;;;;;;6.31;84.29;100215.22;1812070;78;20980;-69
2021/10/28 05:47:50;;;;;;;53.75;31.15;;;;;;;6.34;84.25;100228.92;1806607;78;20972;-69
2021/10/28 05:50:24;;;;;;;51.10;31.80;;;;;;;6.40;84.22;100229.72;1811379;78;20980;-70
2021/10/28 05:52:49;;;;;;;53.13;31.55;;;;;;;6.43;84.12;100226.45;1793568;78;21019;-69
2021/10/28 05:55:15;;;;;;;53.75;31.45;;;;;;;6.47;84.06;100229.44;1781197;80;21132;-69
2021/10/28 05:57:44;;;;;;;49.05;30.72;;;;;;;6.50;83.98;100240.67;1757274;81;21605;-69
2021/10/28 06:00:12;;;;;;;59.80;34.30;;;;;;;6.54;84.00;100244.52;1757075;81;20996;-70
2021/10/28 06:02:39;;;;;;;51.13;31.20;;;;;;;6.59;83.94;100243.68;1778104;80;21442;-68
2021/10/28 06:05:07;;;;;;;53.13;31.12;;;;;;;6.63;83.84;100255.73;1776040;80;21134;-69
2021/10/28 06:07:33;;;;;;;54.58;32.03;;;;;;;6.67;83.78;100247.80;1735061;80;21087;-69
2021/10/28 06:10:02;;;;;;;53.87;31.27;;;;;;;6.72;83.76;100242.85;1777047;80;21015;-69
2021/10/28 06:12:33;;;;;;;57.78;33.48;;;;;;;6.78;83.63;100237.09;1775375;80;21498;-69
2021/10/28 06:14:59;;;;;;;56.65;33.95;;;;;;;6.82;83.42;100232.67;1779751;80;21601;-69
2021/10/28 06:17:33;;;;;;;49.80;31.68;;;;;;;6.83;83.26;100233.51;1745610;80;20991;-68
2021/10/28 06:20:00;;;;;;;54.13;32.80;;;;;;;6.85;83.16;100243.64;1736038;81;22149;-69
2021/10/28 06:22:29;;;;;;;52.65;31.87;;;;;;;6.88;82.97;100247.73;1743975;80;21655;-68
2021/10/28 06:24:58;;;;;;;44.75;29.95;;;;;;;6.90;82.84;100251.02;1735087;81;21035;-69
2021/10/28 06:27:29;;;;;;;55.25;31.87;;;;;;;6.92;82.83;100252.41;1774433;80;20986;-69
2021/10/28 06:29:55;;;;;;;57.17;32.35;;;;;;;6.97;82.60;100258.95;1742078;81;21039;-69
2021/10/28 06:32:23;;;;;;;55.95;31.50;;;;;;;6.98;82.33;100266.89;1736565;81;21540;-69
2021/10/28 06:34:50;;;;;;;53.70;32.25;;;;;;;6.99;82.19;100261.70;1758337;81;21473;-71
2021/10/28 06:37:18;;;;;;;59.60;30.65;;;;;;;7.02;82.18;100264.42;1759493;81;21071;-69
2021/10/28 06:39:45;;;;;;;49.08;29.63;;;;;;;7.03;82.11;100267.42;1756226;81;21031;-69
2021/10/28 06:42:14;;;;;;;49.30;30.82;;;;;;;7.05;81.92;100270.72;1753348;81;21020;-71
2021/10/28 06:45:03;;;;;;;49.33;30.97;;;;;;;7.06;81.75;100271.80;1734083;81;21148;-68
2021/10/28 06:47:32;;;;;;;48.38;30.90;;;;;;;7.10;81.72;100283.58;1737724;82;21041;-71
2021/10/28 06:50:06;;;;;;;50.63;30.23;;;;;;;7.11;81.59;100270.16;1709248;83;21078;-70
2021/10/28 06:52:48;;;;;;;47.67;29.23;;;;;;;7.14;81.41;100270.97;1736287;82;21054;-70
2021/10/28 06:55:06;;;;;;;50.83;31.70;;;;;;;7.15;81.36;100268.48;1735694;82;21025;-70
2021/10/28 06:57:46;;;;;;;58.40;34.33;;;;;;;7.17;81.29;100268.50;1736676;82;21143;-70
2021/10/28 07:02:45;;;;;;;51.45;30.52;;;;;;;7.21;81.27;100274.79;1699636;84;21584;-70
2021/10/28 07:05:12;;;;;;;49.45;30.82;;;;;;;7.22;81.09;100270.39;1736221;82;21065;-70
2021/10/28 07:07:39;;;;;;;56.90;33.30;;;;;;;7.24;81.03;100270.95;1693023;82;21174;-70
2021/10/28 07:10:20;;;;;;;55.40;31.57;;;;;;;7.28;80.93;100272.58;1706205;84;21098;-70
2021/10/28 07:15:19;;;;;;;56.75;30.60;;;;;;;7.33;80.79;100267.63;1729381;82;21066;-69
2021/10/28 07:17:57;;;;;;;59.83;33.02;;;;;;;7.34;80.62;100265.14;1724937;82;20996;-69
2021/10/28 07:28:24;;;;;;;64.87;32.08;;;;;;;7.39;80.49;100271.98;1704875;82;21030;-70
2021/10/28 07:58:12;;;;;;;52.75;31.12;;;;;;;7.81;80.12;100244.36;1734681;82;21532;-70
2021/10/28 08:04:44;;;;;;;49.53;30.23;;;;;;;7.85;80.06;100238.55;1700982;84;21456;-70
2021/10/28 08:13:31;;;;;;;49.98;29.23;;;;;;;8.13;80.01;100246.63;1735857;82;21035;-70
2021/10/28 08:16:55;;;;;;;53.33;30.88;;;;;;;8.28;79.66;100232.50;1734456;82;22017;-71
2021/10/28 08:22:48;;;;;;;49.03;29.67;;;;;;;8.39;79.38;100228.55;1727790;82;21039;-70
2021/10/28 08:29:57;;;;;;;49.30;28.85;;;;;;;8.59;79.09;100214.95;1708411;82;21538;-70
2021/10/28 08:32:24;;;;;;;55.30;30.43;;;;;;;8.66;79.02;100209.13;1708374;84;21016;-70
2021/10/28 08:34:53;;;;;;;56.83;31.48;;;;;;;8.75;78.82;100208.77;1739520;82;21559;-70
2021/10/28 08:37:23;;;;;;;46.98;28.10;;;;;;;8.83;78.62;100212.25;1709798;82;21543;-71
2021/10/28 08:39:51;;;;;;;42.43;26.68;;;;;;;8.88;78.33;100210.82;1729133;82;21015;-71
2021/10/28 08:42:22;;;;;;;47.50;26.87;;;;;;;8.95;78.21;100212.39;1702866;82;39212;-70
2021/10/28 08:44:53;;;;;;;47.50;27.60;;;;;;;9.01;78.18;100211.21;1728552;82;21054;-71
2021/10/28 08:47:21;;;;;;;49.48;28.70;;;;;;;9.08;78.11;100222.69;1695608;82;21012;-71
2021/10/28 08:49:55;;;;;;;45.78;27.37;;;;;;;9.18;77.97;100227.81;1707085;84;21525;-71
2021/10/28 08:54:56;;;;;;;63.50;31.37;;;;;;;9.36;77.53;100229.78;1695229;84;21767;-70
2021/10/28 08:57:50;;;;;;;61.28;31.62;;;;;;;9.44;77.15;100235.72;1704869;84;21066;-70
2021/10/28 09:25:12;;;;;;;41.45;23.20;;;;;;;10.03;75.80;100237.41;1639335;84;21495;-70
2021/10/28 09:27:57;;;;;;;45.12;22.95;;;;;;;10.06;75.82;100239.55;1681386;84;21001;-71
2021/10/28 09:30:21;;;;;;;38.13;23.67;;;;;;;10.09;75.42;100233.44;1703912;84;21067;-71
2021/10/28 09:32:48;;;;;;;41.30;23.15;;;;;;;10.14;75.23;100236.12;1679235;84;20991;-71
2021/10/28 09:43:59;;;;;;;41.23;23.07;;;;;;;10.42;74.39;100222.42;1676927;85;21071;-71
2021/10/28 09:46:44;;;;;;;36.03;22.40;;;;;;;10.47;74.13;100230.64;1702434;81;21103;-71
2021/10/28 09:52:15;;;;;;;40.48;22.40;;;;;;;10.58;73.64;100220.27;1699050;84;21026;-70
2021/10/28 09:54:47;;;;;;;37.67;22.55;;;;;;;10.63;73.49;100223.48;1733102;81;21047;-70
2021/10/28 10:00:15;;;;;;;30.05;19.70;;;;;;;10.71;73.27;100208.20;1702900;84;21079;-70
2021/10/28 10:02:47;;;;;;;37.63;20.95;;;;;;;10.75;73.19;100212.55;1733798;82;21153;-70
2021/10/28 10:05:19;;;;;;;36.42;21.45;;;;;;;10.80;73.10;100222.07;1708581;82;20992;-71
2021/10/28 10:07:48;;;;;;;45.50;24.00;;;;;;;10.85;72.87;100215.08;1744603;82;21037;-70
2021/10/28 10:10:18;;;;;;;39.48;22.98;;;;;;;10.89;72.62;100228.53;1738094;82;21062;-70
2021/10/28 10:12:46;;;;;;;51.68;23.85;;;;;;;10.95;72.58;100235.56;1737403;82;21014;-71
2021/10/28 10:15:14;;;;;;;41.18;21.55;;;;;;;10.99;72.25;100226.13;1749288;82;21606;-70
2021/10/28 10:17:41;;;;;;;33.10;19.80;;;;;;;11.04;71.97;100218.31;1749619;82;21477;-71
2021/10/28 10:20:11;;;;;;;36.75;20.32;;;;;;;11.11;71.60;100214.59;1739566;82;21026;-70
2021/10/28 10:22:57;;;;;;;32.20;19.57;;;;;;;11.16;71.64;100208.14;1714860;82;21074;-71
2021/10/28 12:25:50;;;;;;;30.27;15.45;;;;;;;13.48;63.10;100213.48;1691151;83;21059;-71
2021/10/28 12:45:49;;;;;;;20.50;12.25;;;;;;;12.86;65.49;100224.38;1670872;83;21047;-71
2021/10/28 12:51:41;;;;;;;24.18;13.98;;;;;;;12.81;65.77;100219.77;1685312;83;22017;-71
2021/10/28 13:48:57;;;;;;;28.38;15.28;;;;;;;12.88;66.42;100251.16;1726950;81;21625;-70
2021/10/28 14:22:09;;;;;;;31.05;15.55;;;;;;;12.51;67.73;100264.52;1695385;84;21055;-70
2021/10/28 14:24:33;;;;;;;30.88;15.03;;;;;;;12.47;67.89;100266.27;1683567;83;21511;-71
2021/10/28 14:29:48;;;;;;;24.95;14.30;;;;;;;12.43;68.27;100269.98;1696179;84;21039;-70
2021/10/28 15:02:13;;;;;;;35.38;15.85;;;;;;;12.12;69.91;100283.41;1711568;82;21019;-71
2021/10/28 15:29:30;;;;;;;28.23;12.80;;;;;;;12.05;70.66;100299.55;1732403;82;21022;-72
2021/10/28 15:32:29;;;;;;;27.32;12.23;;;;;;;12.04;70.76;100302.88;1733325;82;21016;-71
2021/10/28 15:40:18;;;;;;;38.00;20.48;;;;;;;12.02;71.35;100313.99;1703424;84;21004;-71
2021/10/28 15:53:51;;;;;;;50.00;23.77;;;;;;;12.13;72.07;100335.34;1732293;82;21101;-71
2021/10/28 15:59:15;;;;;;;51.15;25.08;;;;;;;12.16;72.18;100335.51;1672542;84;21085;-72
2021/10/28 16:23:00;;;;;;;22.87;13.05;;;;;;;12.21;73.09;100362.23;1736153;82;21551;-73
2021/10/28 16:25:27;;;;;;;23.85;13.15;;;;;;;12.23;73.11;100363.30;1744303;82;21074;-71
2021/10/28 16:27:53;;;;;;;29.77;17.05;;;;;;;12.22;73.18;100361.64;1744510;82;21913;-72
2021/10/28 16:30:19;;;;;;;24.90;15.78;;;;;;;12.22;73.15;100363.84;1709641;82;21046;-72
2021/10/28 16:32:46;;;;;;;30.85;17.73;;;;;;;12.22;73.16;100363.02;1709651;82;21026;-71
2021/10/28 16:35:15;;;;;;;22.87;13.30;;;;;;;12.23;73.23;100366.05;1665072;84;21148;-73
2021/10/28 16:37:45;;;;;;;23.52;12.00;;;;;;;12.20;73.24;100365.30;1737452;82;20999;-72
2021/10/28 16:40:12;;;;;;;22.75;12.70;;;;;;;12.19;73.48;100364.47;1716871;81;21025;-72
2021/10/28 16:42:41;;;;;;;23.90;12.53;;;;;;;12.19;73.64;100365.03;1716639;81;21015;-73
2021/10/28 16:45:10;;;;;;;20.27;12.68;;;;;;;12.19;73.70;100360.33;1736379;81;21076;-72
2021/10/28 16:47:37;;;;;;;20.82;12.68;;;;;;;12.21;73.65;100362.78;1728327;81;21585;-72
2021/10/28 16:50:05;;;;;;;21.50;12.82;;;;;;;12.21;73.69;100366.92;1707592;83;21060;-72
2021/10/28 16:52:31;;;;;;;26.23;14.95;;;;;;;12.22;73.69;100374.07;1734194;82;21837;-72
2021/10/28 16:54:58;;;;;;;23.77;14.15;;;;;;;12.22;73.67;100374.07;1730618;82;21067;-72
2021/10/28 16:57:24;;;;;;;22.15;13.32;;;;;;;12.21;73.70;100376.59;1707554;83;21035;-72
2021/10/28 16:59:51;;;;;;;20.80;13.65;;;;;;;12.20;73.75;100380.50;1675419;84;21016;-73
2021/10/28 17:02:18;;;;;;;33.20;15.25;;;;;;;12.20;73.79;100374.97;1702719;84;21108;-73
2021/10/28 17:04:45;;;;;;;24.95;13.15;;;;;;;12.20;73.84;100376.35;1708167;83;21158;-72
2021/10/28 17:07:12;;;;;;;21.85;13.35;;;;;;;12.19;73.90;100377.46;1702513;84;21076;-72
2021/10/28 17:09:39;;;;;;;17.32;12.45;;;;;;;12.20;73.82;100390.96;1709152;83;21548;-72
2021/10/28 17:12:05;;;;;;;23.77;12.13;;;;;;;12.19;73.78;100387.13;1702360;83;21072;-72
2021/10/28 17:14:37;;;;;;;19.98;12.23;;;;;;;12.13;73.89;100388.63;1705693;83;21054;-71
2021/10/28 17:17:05;;;;;;;30.95;12.88;;;;;;;12.12;73.89;100389.77;1675950;84;21031;-73
2021/10/28 17:19:33;;;;;;;28.10;15.15;;;;;;;12.11;73.96;100394.22;1706706;84;21800;-72
2021/10/28 17:22:00;;;;;;;26.65;14.93;;;;;;;12.09;74.05;100401.98;1701654;84;21110;-72
2021/10/28 17:24:39;;;;;;;26.90;14.80;;;;;;;12.07;74.18;100402.82;1703114;84;21047;-72
2021/10/28 17:27:05;;;;;;;22.90;15.32;;;;;;;12.04;74.26;100402.89;1696065;84;21039;-71
2021/10/28 17:29:32;;;;;;;25.60;14.33;;;;;;;12.03;74.24;100397.92;1702683;83;21170;-72
2021/10/28 17:31:59;;;;;;;28.47;15.80;;;;;;;12.02;74.27;100398.23;1707247;84;21012;-72
2021/10/28 17:34:27;;;;;;;28.52;15.48;;;;;;;12.00;74.23;100399.09;1703701;84;21036;-71
2021/10/28 17:36:55;;;;;;;30.50;17.10;;;;;;;12.02;74.21;100403.20;1701833;83;21572;-72
2021/10/28 17:39:25;;;;;;;32.33;17.45;;;;;;;12.02;74.26;100402.38;1696406;84;21031;-71
2021/10/28 17:41:52;;;;;;;36.53;19.23;;;;;;;12.02;74.29;100405.13;1703040;83;21105;-71
2021/10/28 17:44:20;;;;;;;43.25;21.68;;;;;;;12.03;74.23;100399.85;1699502;84;21076;-73
2021/10/28 17:46:46;;;;;;;40.83;23.25;;;;;;;12.04;74.18;100404.27;1702895;83;21524;-72
2021/10/28 17:49:15;;;;;;;41.35;23.15;;;;;;;12.04;74.22;100407.03;1683437;82;21222;-71
2021/10/28 17:51:41;;;;;;;50.63;25.55;;;;;;;12.03;74.11;100410.34;1726877;82;21063;-71
2021/10/28 17:54:10;;;;;;;41.48;23.35;;;;;;;12.01;74.11;100406.27;1710405;82;21150;-71
2021/10/28 17:56:38;;;;;;;49.48;23.22;;;;;;;11.99;74.16;100409.90;1731224;82;21058;-72
2021/10/28 17:59:05;;;;;;;39.20;23.12;;;;;;;11.96;74.27;100410.52;1724783;82;21062;-71
2021/10/28 18:01:38;;;;;;;44.75;24.40;;;;;;;11.94;74.30;100413.59;1708654;82;21007;-73
2021/10/28 18:04:05;;;;;;;40.70;22.82;;;;;;;11.93;74.29;100416.91;1713268;82;21320;-72
2021/10/28 18:06:33;;;;;;;44.58;24.52;;;;;;;11.92;74.33;100415.25;1731079;82;21731;-72
2021/10/28 18:09:03;;;;;;;50.65;24.72;;;;;;;11.90;74.45;100418.91;1726056;82;21043;-72
2021/10/28 18:11:33;;;;;;;44.50;25.02;;;;;;;11.87;74.60;100417.31;1726390;82;21427;-72
2021/10/28 18:14:00;;;;;;;46.08;23.07;;;;;;;11.86;74.70;100419.25;1735134;82;21027;-73
2021/10/28 18:16:30;;;;;;;40.45;21.20;;;;;;;11.84;74.69;100417.35;1710194;82;21293;-72
2021/10/28 18:18:59;;;;;;;31.77;18.52;;;;;;;11.79;74.95;100418.83;1730928;82;21575;-72
2021/10/28 18:21:26;;;;;;;26.42;15.43;;;;;;;11.74;75.15;100419.76;1735400;82;21102;-71
2021/10/28 18:23:54;;;;;;;24.85;14.25;;;;;;;11.70;75.40;100421.52;1710626;82;21511;-72
2021/10/28 18:26:24;;;;;;;22.85;14.55;;;;;;;11.68;75.55;100421.82;1731723;82;21034;-71
2021/10/28 18:28:51;;;;;;;26.00;14.25;;;;;;;11.67;75.75;100428.45;1735580;82;21047;-71
2021/10/28 18:31:18;;;;;;;21.95;12.78;;;;;;;11.65;75.91;100425.16;1735771;82;21791;-72
2021/10/28 18:33:44;;;;;;;25.70;14.38;;;;;;;11.66;75.97;100428.20;1735358;82;21031;-71
2021/10/28 18:36:14;;;;;;;28.30;14.75;;;;;;;11.68;76.06;100425.96;1731134;82;21539;-72
2021/10/28 18:38:47;;;;;;;24.80;15.48;;;;;;;11.71;76.13;100431.97;1730972;82;21042;-71
2021/10/28 18:41:15;;;;;;;21.40;15.10;;;;;;;11.70;76.17;100427.03;1710810;82;21534;-72
2021/10/28 18:43:43;;;;;;;26.60;15.35;;;;;;;11.71;76.08;100425.90;1735068;82;21172;-72
2021/10/28 18:46:10;;;;;;;22.55;14.07;;;;;;;11.72;76.04;100424.77;1727133;82;21482;-71
2021/10/28 18:48:38;;;;;;;23.02;14.50;;;;;;;11.72;76.10;100435.80;1702186;82;21094;-72
2021/10/28 18:51:06;;;;;;;23.40;14.75;;;;;;;11.72;76.11;100430.28;1718312;83;21027;-72
2021/10/28 18:53:38;;;;;;;26.15;13.90;;;;;;;11.74;76.03;100439.64;1710189;83;21047;-72
2021/10/28 18:56:01;;;;;;;23.07;15.15;;;;;;;11.75;75.96;100444.05;1710227;83;22159;-71
2021/10/28 18:58:27;;;;;;;26.68;14.75;;;;;;;11.75;76.00;100443.50;1710013;83;21128;-72
2021/10/28 19:00:55;;;;;;;27.25;15.58;;;;;;;11.76;75.89;100447.06;1684609;83;21114;-71
2021/10/28 19:03:24;;;;;;;26.30;15.35;;;;;;;11.75;75.83;100450.41;1710164;83;21018;-71
2021/10/28 19:05:54;;;;;;;27.85;15.60;;;;;;;11.76;75.73;100449.82;1710212;83;21009;-70
2021/10/28 19:08:21;;;;;;;28.10;15.85;;;;;;;11.76;75.71;100448.44;1710531;83;21506;-72
2021/10/28 19:10:48;;;;;;;35.08;18.15;;;;;;;11.75;75.75;100452.34;1710075;83;21033;-70
2021/10/28 19:13:19;;;;;;;33.02;18.37;;;;;;;11.75;75.90;100453.72;1707727;83;21055;-71
2021/10/28 19:15:45;;;;;;;27.95;17.40;;;;;;;11.74;75.94;100458.96;1709471;83;21497;-71
2021/10/28 19:18:12;;;;;;;29.60;17.90;;;;;;;11.72;76.04;100455.72;1713038;83;21059;-71
2021/10/28 19:20:39;;;;;;;32.33;18.00;;;;;;;11.72;76.01;100459.85;1685913;83;21072;-71
2021/10/28 19:23:07;;;;;;;29.57;17.32;;;;;;;11.71;75.98;100460.95;1720512;83;21020;-71
2021/10/28 19:25:34;;;;;;;26.65;16.82;;;;;;;11.71;75.93;100465.09;1710162;83;21556;-71
2021/10/28 19:28:02;;;;;;;28.98;16.20;;;;;;;11.68;75.83;100465.98;1717276;83;21115;-71
2021/10/28 19:30:41;;;;;;;32.23;17.73;;;;;;;11.68;75.85;100470.13;1680452;84;21566;-70
2021/10/28 19:33:13;;;;;;;29.30;17.52;;;;;;;11.67;75.89;100474.00;1709785;83;21098;-70
2021/10/28 19:35:40;;;;;;;35.75;20.40;;;;;;;11.67;75.98;100469.86;1717169;83;21054;-71
2021/10/28 19:46:10;;;;;;;29.95;18.10;;;;;;;11.64;75.75;100480.68;1717397;83;21138;-70